sensor_id;sensor_type;location;lat;lon;timestamp;P1;durP1;ratioP1;P2;durP2;ratioP2
59040;SDS011;44825;53.200;6.448;2023-06-22T00:01:58;15.55;;;13.10;;
59040;SDS011;44825;53.200;6.448;2023-06-22T00:04:24;15.40;;;12.45;;
59040;SDS011;44825;53.200;6.448;2023-06-22T00:06:51;16.65;;;13.93;;
59040;SDS011;44825;53.200;6.448;2023-06-22T00:09:17;13.20;;;10.98;;
59040;SDS011;44825;53.200;6.448;2023-06-22T00:11:43;14.57;;;10.00;;
59040;SDS011;44825;53.200;6.448;2023-06-22T00:14:09;12.70;;;11.40;;
59040;SDS011;44825;53.200;6.448;2023-06-22T00:16:35;16.05;;;12.48;;
59040;SDS011;44825;53.200;6.448;2023-06-22T00:19:01;15.23;;;13.52;;
59040;SDS011;44825;53.200;6.448;2023-06-22T00:21:28;12.80;;;10.95;;
59040;SDS011;44825;53.200;6.448;2023-06-22T00:23:54;13.68;;;11.88;;
59040;SDS011;44825;53.200;6.448;2023-06-22T00:26:20;17.38;;;11.52;;
59040;SDS011;44825;53.200;6.448;2023-06-22T00:28:47;12.98;;;11.15;;
59040;SDS011;44825;53.200;6.448;2023-06-22T00:31:13;14.10;;;12.15;;
59040;SDS011;44825;53.200;6.448;2023-06-22T00:33:39;16.58;;;12.85;;
59040;SDS011;44825;53.200;6.448;2023-06-22T00:36:05;17.67;;;14.95;;
59040;SDS011;44825;53.200;6.448;2023-06-22T00:38:38;16.00;;;14.40;;
59040;SDS011;44825;53.200;6.448;2023-06-22T00:41:05;15.48;;;12.77;;
59040;SDS011;44825;53.200;6.448;2023-06-22T00:43:31;14.30;;;12.80;;
59040;SDS011;44825;53.200;6.448;2023-06-22T00:45:57;14.75;;;12.57;;
59040;SDS011;44825;53.200;6.448;2023-06-22T00:48:23;14.15;;;11.98;;
59040;SDS011;44825;53.200;6.448;2023-06-22T00:50:50;14.60;;;12.38;;
59040;SDS011;44825;53.200;6.448;2023-06-22T00:53:18;14.82;;;12.57;;
59040;SDS011;44825;53.200;6.448;2023-06-22T00:55:44;18.67;;;13.48;;
59040;SDS011;44825;53.200;6.448;2023-06-22T00:58:16;13.80;;;12.30;;
59040;SDS011;44825;53.200;6.448;2023-06-22T01:00:42;18.85;;;13.57;;
59040;SDS011;44825;53.200;6.448;2023-06-22T01:03:08;15.38;;;12.98;;
59040;SDS011;44825;53.200;6.448;2023-06-22T01:05:35;14.65;;;11.77;;
59040;SDS011;44825;53.200;6.448;2023-06-22T01:12:54;13.98;;;11.85;;
59040;SDS011;44825;53.200;6.448;2023-06-22T01:15:37;13.05;;;11.23;;
59040;SDS011;44825;53.200;6.448;2023-06-22T01:18:05;11.35;;;9.85;;
59040;SDS011;44825;53.200;6.448;2023-06-22T01:20:34;13.07;;;10.10;;
59040;SDS011;44825;53.200;6.448;2023-06-22T01:25:52;12.77;;;10.23;;
59040;SDS011;44825;53.200;6.448;2023-06-22T01:30:57;13.07;;;11.60;;
59040;SDS011;44825;53.200;6.448;2023-06-22T01:33:32;11.98;;;10.68;;
59040;SDS011;44825;53.200;6.448;2023-06-22T01:35:59;11.77;;;10.48;;
59040;SDS011;44825;53.200;6.448;2023-06-22T01:38:26;12.18;;;9.88;;
59040;SDS011;44825;53.200;6.448;2023-06-22T01:40:52;12.25;;;9.75;;
59040;SDS011;44825;53.200;6.448;2023-06-22T01:43:19;10.77;;;9.20;;
59040;SDS011;44825;53.200;6.448;2023-06-22T01:45:48;11.75;;;9.75;;
59040;SDS011;44825;53.200;6.448;2023-06-22T01:48:14;10.98;;;9.85;;
59040;SDS011;44825;53.200;6.448;2023-06-22T01:50:40;12.38;;;9.95;;
59040;SDS011;44825;53.200;6.448;2023-06-22T01:53:06;10.63;;;8.85;;
59040;SDS011;44825;53.200;6.448;2023-06-22T01:55:33;10.32;;;8.70;;
59040;SDS011;44825;53.200;6.448;2023-06-22T01:57:59;12.75;;;10.10;;
59040;SDS011;44825;53.200;6.448;2023-06-22T02:00:25;12.32;;;10.45;;
59040;SDS011;44825;53.200;6.448;2023-06-22T02:05:22;10.63;;;9.13;;
59040;SDS011;44825;53.200;6.448;2023-06-22T02:07:52;10.98;;;8.57;;
59040;SDS011;44825;53.200;6.448;2023-06-22T02:10:22;13.23;;;10.88;;
59040;SDS011;44825;53.200;6.448;2023-06-22T02:12:50;12.38;;;10.80;;
59040;SDS011;44825;53.200;6.448;2023-06-22T02:15:17;13.50;;;12.02;;
59040;SDS011;44825;53.200;6.448;2023-06-22T02:17:43;14.63;;;13.10;;
59040;SDS011;44825;53.200;6.448;2023-06-22T02:20:16;13.90;;;10.45;;
59040;SDS011;44825;53.200;6.448;2023-06-22T02:22:43;13.85;;;10.00;;
59040;SDS011;44825;53.200;6.448;2023-06-22T02:25:09;13.70;;;10.07;;
59040;SDS011;44825;53.200;6.448;2023-06-22T02:27:35;12.93;;;11.52;;
59040;SDS011;44825;53.200;6.448;2023-06-22T02:30:01;12.70;;;7.70;;
59040;SDS011;44825;53.200;6.448;2023-06-22T02:32:28;10.02;;;8.55;;
59040;SDS011;44825;53.200;6.448;2023-06-22T02:34:54;12.32;;;10.77;;
59040;SDS011;44825;53.200;6.448;2023-06-22T02:37:20;10.15;;;8.90;;
59040;SDS011;44825;53.200;6.448;2023-06-22T02:39:50;12.60;;;7.18;;
59040;SDS011;44825;53.200;6.448;2023-06-22T02:42:16;6.60;;;5.78;;
59040;SDS011;44825;53.200;6.448;2023-06-22T02:44:45;8.38;;;6.57;;
59040;SDS011;44825;53.200;6.448;2023-06-22T02:47:11;8.13;;;7.05;;
59040;SDS011;44825;53.200;6.448;2023-06-22T02:49:37;13.05;;;6.47;;
59040;SDS011;44825;53.200;6.448;2023-06-22T02:52:03;21.20;;;8.73;;
59040;SDS011;44825;53.200;6.448;2023-06-22T02:54:29;11.30;;;8.38;;
59040;SDS011;44825;53.200;6.448;2023-06-22T02:56:56;11.65;;;8.32;;
59040;SDS011;44825;53.200;6.448;2023-06-22T02:59:22;11.02;;;9.13;;
59040;SDS011;44825;53.200;6.448;2023-06-22T03:01:49;12.32;;;9.82;;
59040;SDS011;44825;53.200;6.448;2023-06-22T03:04:15;13.98;;;11.00;;
59040;SDS011;44825;53.200;6.448;2023-06-22T03:06:41;11.98;;;10.27;;
59040;SDS011;44825;53.200;6.448;2023-06-22T03:09:07;13.77;;;11.30;;
59040;SDS011;44825;53.200;6.448;2023-06-22T03:11:33;11.10;;;9.85;;
59040;SDS011;44825;53.200;6.448;2023-06-22T03:14:00;12.07;;;10.23;;
59040;SDS011;44825;53.200;6.448;2023-06-22T03:16:26;10.65;;;9.55;;
59040;SDS011;44825;53.200;6.448;2023-06-22T03:18:52;10.02;;;8.95;;
59040;SDS011;44825;53.200;6.448;2023-06-22T03:21:19;9.30;;;8.30;;
59040;SDS011;44825;53.200;6.448;2023-06-22T03:23:45;9.18;;;8.27;;
59040;SDS011;44825;53.200;6.448;2023-06-22T03:26:11;10.48;;;9.10;;
59040;SDS011;44825;53.200;6.448;2023-06-22T03:28:37;10.85;;;9.10;;
59040;SDS011;44825;53.200;6.448;2023-06-22T03:31:04;11.23;;;9.60;;
59040;SDS011;44825;53.200;6.448;2023-06-22T03:33:31;10.07;;;8.10;;
59040;SDS011;44825;53.200;6.448;2023-06-22T03:35:57;7.38;;;6.60;;
59040;SDS011;44825;53.200;6.448;2023-06-22T03:38:23;9.73;;;8.05;;
59040;SDS011;44825;53.200;6.448;2023-06-22T03:40:49;8.77;;;7.85;;
59040;SDS011;44825;53.200;6.448;2023-06-22T03:43:15;14.23;;;10.75;;
59040;SDS011;44825;53.200;6.448;2023-06-22T03:45:41;12.00;;;10.75;;
59040;SDS011;44825;53.200;6.448;2023-06-22T03:48:10;11.35;;;9.75;;
59040;SDS011;44825;53.200;6.448;2023-06-22T03:50:36;11.20;;;9.98;;
59040;SDS011;44825;53.200;6.448;2023-06-22T03:53:02;14.35;;;10.20;;
59040;SDS011;44825;53.200;6.448;2023-06-22T03:55:28;12.45;;;10.38;;
59040;SDS011;44825;53.200;6.448;2023-06-22T03:57:55;12.43;;;10.70;;
59040;SDS011;44825;53.200;6.448;2023-06-22T04:00:22;10.85;;;9.60;;
59040;SDS011;44825;53.200;6.448;2023-06-22T04:02:48;11.20;;;9.75;;
59040;SDS011;44825;53.200;6.448;2023-06-22T04:05:14;11.20;;;10.00;;
59040;SDS011;44825;53.200;6.448;2023-06-22T04:07:44;12.65;;;10.13;;
59040;SDS011;44825;53.200;6.448;2023-06-22T04:10:10;11.90;;;9.68;;
59040;SDS011;44825;53.200;6.448;2023-06-22T04:12:36;11.98;;;10.75;;
59040;SDS011;44825;53.200;6.448;2023-06-22T04:15:02;13.20;;;10.60;;
59040;SDS011;44825;53.200;6.448;2023-06-22T04:17:28;11.82;;;10.43;;
59040;SDS011;44825;53.200;6.448;2023-06-22T04:19:54;11.75;;;10.07;;
59040;SDS011;44825;53.200;6.448;2023-06-22T04:22:20;13.10;;;10.30;;
59040;SDS011;44825;53.200;6.448;2023-06-22T04:24:46;13.07;;;11.63;;
59040;SDS011;44825;53.200;6.448;2023-06-22T04:27:12;15.70;;;13.32;;
59040;SDS011;44825;53.200;6.448;2023-06-22T04:29:38;15.25;;;13.65;;
59040;SDS011;44825;53.200;6.448;2023-06-22T04:32:13;15.90;;;13.98;;
59040;SDS011;44825;53.200;6.448;2023-06-22T04:34:40;15.05;;;12.80;;
59040;SDS011;44825;53.200;6.448;2023-06-22T04:37:06;15.68;;;14.00;;
59040;SDS011;44825;53.200;6.448;2023-06-22T04:39:32;17.05;;;15.07;;
59040;SDS011;44825;53.200;6.448;2023-06-22T04:41:58;17.15;;;14.85;;
59040;SDS011;44825;53.200;6.448;2023-06-22T04:44:27;18.17;;;15.82;;
59040;SDS011;44825;53.200;6.448;2023-06-22T04:46:54;17.65;;;14.90;;
59040;SDS011;44825;53.200;6.448;2023-06-22T04:49:28;18.67;;;16.13;;
59040;SDS011;44825;53.200;6.448;2023-06-22T04:51:59;14.77;;;13.13;;
59040;SDS011;44825;53.200;6.448;2023-06-22T04:54:25;16.65;;;14.07;;
59040;SDS011;44825;53.200;6.448;2023-06-22T04:56:51;16.02;;;14.32;;
59040;SDS011;44825;53.200;6.448;2023-06-22T04:59:23;15.80;;;14.02;;
59040;SDS011;44825;53.200;6.448;2023-06-22T05:01:56;18.17;;;16.27;;
59040;SDS011;44825;53.200;6.448;2023-06-22T05:04:23;19.40;;;16.10;;
59040;SDS011;44825;53.200;6.448;2023-06-22T05:06:50;20.77;;;16.52;;
59040;SDS011;44825;53.200;6.448;2023-06-22T05:09:16;19.85;;;17.10;;
59040;SDS011;44825;53.200;6.448;2023-06-22T05:11:42;22.38;;;18.02;;
59040;SDS011;44825;53.200;6.448;2023-06-22T05:14:09;22.77;;;17.65;;
59040;SDS011;44825;53.200;6.448;2023-06-22T05:16:35;23.38;;;19.42;;
59040;SDS011;44825;53.200;6.448;2023-06-22T05:19:02;27.02;;;21.08;;
59040;SDS011;44825;53.200;6.448;2023-06-22T05:21:28;22.30;;;19.38;;
59040;SDS011;44825;53.200;6.448;2023-06-22T05:23:55;20.85;;;18.05;;
59040;SDS011;44825;53.200;6.448;2023-06-22T05:26:24;27.10;;;22.98;;
59040;SDS011;44825;53.200;6.448;2023-06-22T05:28:50;26.20;;;21.40;;
59040;SDS011;44825;53.200;6.448;2023-06-22T05:31:17;27.85;;;22.35;;
59040;SDS011;44825;53.200;6.448;2023-06-22T05:33:44;29.20;;;23.20;;
59040;SDS011;44825;53.200;6.448;2023-06-22T05:36:11;28.73;;;23.77;;
59040;SDS011;44825;53.200;6.448;2023-06-22T05:38:37;27.42;;;22.73;;
59040;SDS011;44825;53.200;6.448;2023-06-22T05:41:04;27.55;;;23.92;;
59040;SDS011;44825;53.200;6.448;2023-06-22T05:43:30;27.17;;;24.08;;
59040;SDS011;44825;53.200;6.448;2023-06-22T05:45:56;25.92;;;23.15;;
59040;SDS011;44825;53.200;6.448;2023-06-22T05:48:23;27.67;;;23.67;;
59040;SDS011;44825;53.200;6.448;2023-06-22T05:50:49;30.63;;;25.38;;
59040;SDS011;44825;53.200;6.448;2023-06-22T05:53:15;27.52;;;24.63;;
59040;SDS011;44825;53.200;6.448;2023-06-22T05:55:41;27.55;;;24.55;;
59040;SDS011;44825;53.200;6.448;2023-06-22T05:58:07;29.80;;;25.55;;
59040;SDS011;44825;53.200;6.448;2023-06-22T06:00:34;27.35;;;23.77;;
59040;SDS011;44825;53.200;6.448;2023-06-22T06:03:00;28.50;;;25.00;;
59040;SDS011;44825;53.200;6.448;2023-06-22T06:05:31;28.23;;;24.58;;
59040;SDS011;44825;53.200;6.448;2023-06-22T06:07:59;27.38;;;24.35;;
59040;SDS011;44825;53.200;6.448;2023-06-22T06:10:25;27.48;;;23.70;;
59040;SDS011;44825;53.200;6.448;2023-06-22T06:12:51;28.30;;;25.30;;
59040;SDS011;44825;53.200;6.448;2023-06-22T06:15:17;28.77;;;25.67;;
59040;SDS011;44825;53.200;6.448;2023-06-22T06:17:51;30.02;;;25.45;;
59040;SDS011;44825;53.200;6.448;2023-06-22T06:20:21;26.55;;;23.73;;
59040;SDS011;44825;53.200;6.448;2023-06-22T06:22:48;26.67;;;23.88;;
59040;SDS011;44825;53.200;6.448;2023-06-22T06:25:14;29.60;;;25.08;;
59040;SDS011;44825;53.200;6.448;2023-06-22T06:27:43;27.02;;;24.05;;
59040;SDS011;44825;53.200;6.448;2023-06-22T06:30:10;27.52;;;23.50;;
59040;SDS011;44825;53.200;6.448;2023-06-22T06:32:36;30.13;;;24.33;;
59040;SDS011;44825;53.200;6.448;2023-06-22T06:35:03;21.88;;;18.45;;
59040;SDS011;44825;53.200;6.448;2023-06-22T06:37:29;19.23;;;17.15;;
59040;SDS011;44825;53.200;6.448;2023-06-22T06:39:55;19.55;;;17.23;;
59040;SDS011;44825;53.200;6.448;2023-06-22T06:42:21;21.58;;;18.88;;
59040;SDS011;44825;53.200;6.448;2023-06-22T06:44:49;18.88;;;16.67;;
59040;SDS011;44825;53.200;6.448;2023-06-22T06:47:15;17.73;;;14.80;;
59040;SDS011;44825;53.200;6.448;2023-06-22T06:49:42;18.33;;;14.13;;
59040;SDS011;44825;53.200;6.448;2023-06-22T06:52:08;17.95;;;15.00;;
59040;SDS011;44825;53.200;6.448;2023-06-22T06:54:34;17.67;;;15.25;;
59040;SDS011;44825;53.200;6.448;2023-06-22T06:57:00;17.20;;;14.35;;
59040;SDS011;44825;53.200;6.448;2023-06-22T06:59:28;17.85;;;14.43;;
59040;SDS011;44825;53.200;6.448;2023-06-22T07:01:55;19.58;;;14.52;;
59040;SDS011;44825;53.200;6.448;2023-06-22T07:04:21;15.48;;;13.20;;
59040;SDS011;44825;53.200;6.448;2023-06-22T07:06:47;22.38;;;14.70;;
59040;SDS011;44825;53.200;6.448;2023-06-22T07:09:13;22.27;;;15.65;;
59040;SDS011;44825;53.200;6.448;2023-06-22T07:11:39;20.48;;;14.60;;
59040;SDS011;44825;53.200;6.448;2023-06-22T07:14:05;18.38;;;12.70;;
59040;SDS011;44825;53.200;6.448;2023-06-22T07:16:31;13.57;;;11.52;;
59040;SDS011;44825;53.200;6.448;2023-06-22T07:18:57;18.17;;;12.70;;
59040;SDS011;44825;53.200;6.448;2023-06-22T07:21:23;15.77;;;12.73;;
59040;SDS011;44825;53.200;6.448;2023-06-22T07:23:50;17.35;;;13.10;;
59040;SDS011;44825;53.200;6.448;2023-06-22T07:26:16;17.33;;;12.55;;
59040;SDS011;44825;53.200;6.448;2023-06-22T07:28:42;14.63;;;11.60;;
59040;SDS011;44825;53.200;6.448;2023-06-22T07:31:08;16.20;;;12.32;;
59040;SDS011;44825;53.200;6.448;2023-06-22T07:33:34;14.13;;;11.15;;
59040;SDS011;44825;53.200;6.448;2023-06-22T07:36:00;12.35;;;11.05;;
59040;SDS011;44825;53.200;6.448;2023-06-22T07:38:27;12.52;;;9.63;;
59040;SDS011;44825;53.200;6.448;2023-06-22T07:40:53;13.73;;;9.85;;
59040;SDS011;44825;53.200;6.448;2023-06-22T07:43:19;15.07;;;11.10;;
59040;SDS011;44825;53.200;6.448;2023-06-22T07:45:49;14.30;;;10.55;;
59040;SDS011;44825;53.200;6.448;2023-06-22T07:48:22;12.95;;;10.38;;
59040;SDS011;44825;53.200;6.448;2023-06-22T07:50:48;15.93;;;9.68;;
59040;SDS011;44825;53.200;6.448;2023-06-22T07:53:14;13.18;;;10.05;;
59040;SDS011;44825;53.200;6.448;2023-06-22T07:55:40;12.55;;;9.00;;
59040;SDS011;44825;53.200;6.448;2023-06-22T07:58:06;12.57;;;7.75;;
59040;SDS011;44825;53.200;6.448;2023-06-22T08:00:33;13.45;;;9.13;;
59040;SDS011;44825;53.200;6.448;2023-06-22T08:02:59;14.93;;;9.93;;
59040;SDS011;44825;53.200;6.448;2023-06-22T08:05:28;14.45;;;9.38;;
59040;SDS011;44825;53.200;6.448;2023-06-22T08:07:55;12.27;;;9.30;;
59040;SDS011;44825;53.200;6.448;2023-06-22T08:10:21;9.90;;;7.45;;
59040;SDS011;44825;53.200;6.448;2023-06-22T08:12:47;9.98;;;8.00;;
59040;SDS011;44825;53.200;6.448;2023-06-22T08:15:13;10.02;;;7.32;;
59040;SDS011;44825;53.200;6.448;2023-06-22T08:17:39;9.50;;;6.60;;
59040;SDS011;44825;53.200;6.448;2023-06-22T08:20:08;10.13;;;5.57;;
59040;SDS011;44825;53.200;6.448;2023-06-22T08:22:35;9.02;;;5.38;;
59040;SDS011;44825;53.200;6.448;2023-06-22T08:25:02;10.10;;;5.75;;
59040;SDS011;44825;53.200;6.448;2023-06-22T08:27:29;8.32;;;6.32;;
59040;SDS011;44825;53.200;6.448;2023-06-22T08:29:58;11.57;;;6.00;;
59040;SDS011;44825;53.200;6.448;2023-06-22T08:32:25;10.48;;;5.88;;
59040;SDS011;44825;53.200;6.448;2023-06-22T08:34:52;9.98;;;6.45;;
59040;SDS011;44825;53.200;6.448;2023-06-22T08:37:19;10.05;;;6.50;;
59040;SDS011;44825;53.200;6.448;2023-06-22T08:39:45;10.98;;;7.97;;
59040;SDS011;44825;53.200;6.448;2023-06-22T08:42:11;10.65;;;7.40;;
59040;SDS011;44825;53.200;6.448;2023-06-22T08:44:37;12.18;;;7.40;;
59040;SDS011;44825;53.200;6.448;2023-06-22T08:47:04;11.52;;;7.43;;
59040;SDS011;44825;53.200;6.448;2023-06-22T08:49:30;9.90;;;6.97;;
59040;SDS011;44825;53.200;6.448;2023-06-22T08:51:56;8.25;;;5.80;;
59040;SDS011;44825;53.200;6.448;2023-06-22T08:54:22;14.43;;;7.93;;
59040;SDS011;44825;53.200;6.448;2023-06-22T08:56:48;10.95;;;7.95;;
59040;SDS011;44825;53.200;6.448;2023-06-22T08:59:14;12.02;;;6.35;;
59040;SDS011;44825;53.200;6.448;2023-06-22T09:01:40;10.48;;;7.40;;
59040;SDS011;44825;53.200;6.448;2023-06-22T09:04:10;9.63;;;5.35;;
59040;SDS011;44825;53.200;6.448;2023-06-22T09:06:36;8.48;;;5.72;;
59040;SDS011;44825;53.200;6.448;2023-06-22T09:11:35;10.48;;;5.78;;
59040;SDS011;44825;53.200;6.448;2023-06-22T09:14:01;9.02;;;6.35;;
59040;SDS011;44825;53.200;6.448;2023-06-22T09:16:28;9.43;;;5.75;;
59040;SDS011;44825;53.200;6.448;2023-06-22T09:18:55;9.88;;;5.57;;
59040;SDS011;44825;53.200;6.448;2023-06-22T09:21:21;7.05;;;5.53;;
59040;SDS011;44825;53.200;6.448;2023-06-22T09:23:47;10.93;;;6.80;;
59040;SDS011;44825;53.200;6.448;2023-06-22T09:26:16;9.55;;;6.32;;
59040;SDS011;44825;53.200;6.448;2023-06-22T09:28:42;9.68;;;5.95;;
59040;SDS011;44825;53.200;6.448;2023-06-22T09:31:08;10.02;;;5.80;;
59040;SDS011;44825;53.200;6.448;2023-06-22T09:33:35;10.43;;;6.60;;
59040;SDS011;44825;53.200;6.448;2023-06-22T09:36:01;10.30;;;5.47;;
59040;SDS011;44825;53.200;6.448;2023-06-22T09:38:27;10.10;;;6.53;;
59040;SDS011;44825;53.200;6.448;2023-06-22T09:40:53;8.68;;;6.10;;
59040;SDS011;44825;53.200;6.448;2023-06-22T09:43:19;8.75;;;6.15;;
59040;SDS011;44825;53.200;6.448;2023-06-22T09:45:45;10.60;;;6.35;;
59040;SDS011;44825;53.200;6.448;2023-06-22T09:48:11;9.68;;;5.93;;
59040;SDS011;44825;53.200;6.448;2023-06-22T09:50:37;8.07;;;5.50;;
59040;SDS011;44825;53.200;6.448;2023-06-22T09:53:03;9.68;;;7.38;;
59040;SDS011;44825;53.200;6.448;2023-06-22T09:55:29;8.10;;;5.75;;
59040;SDS011;44825;53.200;6.448;2023-06-22T09:57:55;10.43;;;6.65;;
59040;SDS011;44825;53.200;6.448;2023-06-22T10:00:21;10.07;;;5.65;;
59040;SDS011;44825;53.200;6.448;2023-06-22T10:02:48;9.50;;;5.60;;
59040;SDS011;44825;53.200;6.448;2023-06-22T10:05:14;9.98;;;6.07;;
59040;SDS011;44825;53.200;6.448;2023-06-22T10:07:40;13.43;;;8.18;;
59040;SDS011;44825;53.200;6.448;2023-06-22T10:10:08;10.25;;;6.22;;
59040;SDS011;44825;53.200;6.448;2023-06-22T10:12:35;8.50;;;5.63;;
59040;SDS011;44825;53.200;6.448;2023-06-22T10:15:01;8.75;;;5.53;;
59040;SDS011;44825;53.200;6.448;2023-06-22T10:17:27;8.93;;;6.55;;
59040;SDS011;44825;53.200;6.448;2023-06-22T10:19:53;8.57;;;5.97;;
59040;SDS011;44825;53.200;6.448;2023-06-22T10:22:19;8.13;;;5.72;;
59040;SDS011;44825;53.200;6.448;2023-06-22T10:24:45;8.50;;;5.40;;
59040;SDS011;44825;53.200;6.448;2023-06-22T10:27:11;9.43;;;5.22;;
59040;SDS011;44825;53.200;6.448;2023-06-22T10:29:38;10.00;;;5.70;;
59040;SDS011;44825;53.200;6.448;2023-06-22T10:32:04;8.68;;;5.65;;
59040;SDS011;44825;53.200;6.448;2023-06-22T10:34:30;10.07;;;5.85;;
59040;SDS011;44825;53.200;6.448;2023-06-22T10:36:57;7.90;;;5.47;;
59040;SDS011;44825;53.200;6.448;2023-06-22T10:39:23;8.13;;;5.60;;
59040;SDS011;44825;53.200;6.448;2023-06-22T10:41:49;9.60;;;5.35;;
59040;SDS011;44825;53.200;6.448;2023-06-22T10:44:15;8.40;;;5.30;;
59040;SDS011;44825;53.200;6.448;2023-06-22T10:46:42;8.63;;;5.72;;
59040;SDS011;44825;53.200;6.448;2023-06-22T10:49:08;8.32;;;5.70;;
59040;SDS011;44825;53.200;6.448;2023-06-22T10:51:34;9.00;;;6.30;;
59040;SDS011;44825;53.200;6.448;2023-06-22T10:54:00;8.48;;;6.18;;
59040;SDS011;44825;53.200;6.448;2023-06-22T10:56:26;7.50;;;4.97;;
59040;SDS011;44825;53.200;6.448;2023-06-22T10:58:52;8.57;;;5.43;;
59040;SDS011;44825;53.200;6.448;2023-06-22T11:01:20;9.68;;;6.22;;
59040;SDS011;44825;53.200;6.448;2023-06-22T11:03:46;8.63;;;6.07;;
59040;SDS011;44825;53.200;6.448;2023-06-22T11:06:12;8.90;;;5.75;;
59040;SDS011;44825;53.200;6.448;2023-06-22T11:08:39;10.35;;;5.38;;
59040;SDS011;44825;53.200;6.448;2023-06-22T11:11:05;10.23;;;5.65;;
59040;SDS011;44825;53.200;6.448;2023-06-22T11:13:31;8.20;;;5.07;;
59040;SDS011;44825;53.200;6.448;2023-06-22T11:15:57;10.20;;;5.60;;
59040;SDS011;44825;53.200;6.448;2023-06-22T11:18:23;9.70;;;5.75;;
59040;SDS011;44825;53.200;6.448;2023-06-22T11:20:49;10.85;;;5.90;;
59040;SDS011;44825;53.200;6.448;2023-06-22T11:23:15;12.13;;;6.30;;
59040;SDS011;44825;53.200;6.448;2023-06-22T11:25:41;8.88;;;5.70;;
59040;SDS011;44825;53.200;6.448;2023-06-22T11:28:07;8.25;;;6.00;;
59040;SDS011;44825;53.200;6.448;2023-06-22T11:30:34;6.93;;;5.00;;
59040;SDS011;44825;53.200;6.448;2023-06-22T11:33:00;7.43;;;5.05;;
59040;SDS011;44825;53.200;6.448;2023-06-22T11:35:26;10.13;;;6.18;;
59040;SDS011;44825;53.200;6.448;2023-06-22T11:37:52;10.35;;;4.93;;
59040;SDS011;44825;53.200;6.448;2023-06-22T11:40:18;7.00;;;4.80;;
59040;SDS011;44825;53.200;6.448;2023-06-22T11:42:44;8.27;;;5.40;;
59040;SDS011;44825;53.200;6.448;2023-06-22T11:45:10;8.48;;;4.70;;
59040;SDS011;44825;53.200;6.448;2023-06-22T11:47:36;8.38;;;5.85;;
59040;SDS011;44825;53.200;6.448;2023-06-22T11:50:02;8.00;;;5.35;;
59040;SDS011;44825;53.200;6.448;2023-06-22T11:52:29;9.48;;;5.95;;
59040;SDS011;44825;53.200;6.448;2023-06-22T11:54:55;9.10;;;5.45;;
59040;SDS011;44825;53.200;6.448;2023-06-22T11:57:21;8.38;;;6.20;;
59040;SDS011;44825;53.200;6.448;2023-06-22T11:59:47;10.48;;;5.90;;
59040;SDS011;44825;53.200;6.448;2023-06-22T12:02:13;8.70;;;6.95;;
59040;SDS011;44825;53.200;6.448;2023-06-22T12:04:39;9.07;;;6.47;;
59040;SDS011;44825;53.200;6.448;2023-06-22T12:07:05;9.00;;;6.07;;
59040;SDS011;44825;53.200;6.448;2023-06-22T12:09:31;8.55;;;6.50;;
59040;SDS011;44825;53.200;6.448;2023-06-22T12:11:58;9.27;;;6.65;;
59040;SDS011;44825;53.200;6.448;2023-06-22T12:14:24;9.57;;;6.35;;
59040;SDS011;44825;53.200;6.448;2023-06-22T12:16:50;7.75;;;5.82;;
59040;SDS011;44825;53.200;6.448;2023-06-22T12:19:16;8.82;;;5.60;;
59040;SDS011;44825;53.200;6.448;2023-06-22T12:21:42;9.88;;;6.65;;
59040;SDS011;44825;53.200;6.448;2023-06-22T12:24:11;11.15;;;6.28;;
59040;SDS011;44825;53.200;6.448;2023-06-22T12:26:37;9.85;;;5.75;;
59040;SDS011;44825;53.200;6.448;2023-06-22T12:29:03;8.25;;;5.20;;
59040;SDS011;44825;53.200;6.448;2023-06-22T12:31:29;8.60;;;5.15;;
59040;SDS011;44825;53.200;6.448;2023-06-22T12:33:55;12.65;;;6.20;;
59040;SDS011;44825;53.200;6.448;2023-06-22T12:36:21;8.80;;;6.30;;
59040;SDS011;44825;53.200;6.448;2023-06-22T12:38:47;7.90;;;5.05;;
59040;SDS011;44825;53.200;6.448;2023-06-22T12:41:13;8.23;;;5.28;;
59040;SDS011;44825;53.200;6.448;2023-06-22T12:43:40;7.90;;;4.82;;
59040;SDS011;44825;53.200;6.448;2023-06-22T12:46:06;9.68;;;3.90;;
59040;SDS011;44825;53.200;6.448;2023-06-22T12:48:32;6.88;;;3.80;;
59040;SDS011;44825;53.200;6.448;2023-06-22T12:50:58;9.93;;;4.22;;
59040;SDS011;44825;53.200;6.448;2023-06-22T12:53:24;6.72;;;4.15;;
59040;SDS011;44825;53.200;6.448;2023-06-22T12:55:52;8.60;;;4.18;;
59040;SDS011;44825;53.200;6.448;2023-06-22T12:58:18;6.70;;;3.50;;
59040;SDS011;44825;53.200;6.448;2023-06-22T13:00:44;7.97;;;3.97;;
59040;SDS011;44825;53.200;6.448;2023-06-22T13:03:10;6.68;;;3.45;;
59040;SDS011;44825;53.200;6.448;2023-06-22T13:05:36;6.53;;;3.33;;
59040;SDS011;44825;53.200;6.448;2023-06-22T13:08:03;6.40;;;3.40;;
59040;SDS011;44825;53.200;6.448;2023-06-22T13:10:29;7.55;;;3.22;;
59040;SDS011;44825;53.200;6.448;2023-06-22T13:12:55;12.55;;;3.90;;
59040;SDS011;44825;53.200;6.448;2023-06-22T13:15:28;6.20;;;3.72;;
59040;SDS011;44825;53.200;6.448;2023-06-22T13:17:55;6.75;;;3.80;;
59040;SDS011;44825;53.200;6.448;2023-06-22T13:20:21;7.75;;;4.20;;
59040;SDS011;44825;53.200;6.448;2023-06-22T13:22:47;6.75;;;3.92;;
59040;SDS011;44825;53.200;6.448;2023-06-22T13:25:13;8.18;;;3.42;;
59040;SDS011;44825;53.200;6.448;2023-06-22T13:27:44;6.63;;;3.50;;
59040;SDS011;44825;53.200;6.448;2023-06-22T13:30:10;7.20;;;3.97;;
59040;SDS011;44825;53.200;6.448;2023-06-22T13:32:36;5.68;;;3.40;;
59040;SDS011;44825;53.200;6.448;2023-06-22T13:35:02;7.20;;;2.83;;
59040;SDS011;44825;53.200;6.448;2023-06-22T13:37:28;7.47;;;2.55;;
59040;SDS011;44825;53.200;6.448;2023-06-22T13:39:55;4.88;;;2.63;;
59040;SDS011;44825;53.200;6.448;2023-06-22T13:42:24;5.38;;;2.90;;
59040;SDS011;44825;53.200;6.448;2023-06-22T13:44:50;5.43;;;2.65;;
59040;SDS011;44825;53.200;6.448;2023-06-22T13:47:16;5.13;;;2.55;;
59040;SDS011;44825;53.200;6.448;2023-06-22T13:49:42;4.97;;;2.55;;
59040;SDS011;44825;53.200;6.448;2023-06-22T13:52:08;6.35;;;2.72;;
59040;SDS011;44825;53.200;6.448;2023-06-22T13:54:35;5.72;;;2.13;;
59040;SDS011;44825;53.200;6.448;2023-06-22T13:57:02;5.63;;;2.40;;
59040;SDS011;44825;53.200;6.448;2023-06-22T13:59:28;4.93;;;2.42;;
59040;SDS011;44825;53.200;6.448;2023-06-22T14:01:54;5.15;;;2.63;;
59040;SDS011;44825;53.200;6.448;2023-06-22T14:04:21;4.88;;;2.47;;
59040;SDS011;44825;53.200;6.448;2023-06-22T14:06:47;4.72;;;2.35;;
59040;SDS011;44825;53.200;6.448;2023-06-22T14:09:13;7.53;;;2.72;;
59040;SDS011;44825;53.200;6.448;2023-06-22T14:11:39;6.30;;;2.72;;
59040;SDS011;44825;53.200;6.448;2023-06-22T14:14:05;4.13;;;2.20;;
59040;SDS011;44825;53.200;6.448;2023-06-22T14:16:31;5.35;;;2.30;;
59040;SDS011;44825;53.200;6.448;2023-06-22T14:18:57;4.50;;;2.22;;
59040;SDS011;44825;53.200;6.448;2023-06-22T14:21:23;6.40;;;2.50;;
59040;SDS011;44825;53.200;6.448;2023-06-22T14:23:50;5.15;;;1.88;;
59040;SDS011;44825;53.200;6.448;2023-06-22T14:26:16;5.13;;;2.10;;
59040;SDS011;44825;53.200;6.448;2023-06-22T14:28:45;3.60;;;1.70;;
59040;SDS011;44825;53.200;6.448;2023-06-22T14:31:16;3.42;;;1.55;;
59040;SDS011;44825;53.200;6.448;2023-06-22T14:33:45;5.30;;;1.75;;
59040;SDS011;44825;53.200;6.448;2023-06-22T14:36:11;3.63;;;1.70;;
59040;SDS011;44825;53.200;6.448;2023-06-22T14:38:37;3.65;;;1.80;;
59040;SDS011;44825;53.200;6.448;2023-06-22T14:41:04;4.07;;;1.70;;
59040;SDS011;44825;53.200;6.448;2023-06-22T14:43:30;5.13;;;1.85;;
59040;SDS011;44825;53.200;6.448;2023-06-22T14:45:56;4.13;;;1.90;;